sensor_id;sensor_type;location;lat;lon;timestamp;P1;durP1;ratioP1;P2;durP2;ratioP2
8361;SDS011;4218;48.326;14.304;2022-07-03T00:00:30;1.20;;;1.20;;
8361;SDS011;4218;48.326;14.304;2022-07-03T00:02:55;0.97;;;0.97;;
8361;SDS011;4218;48.326;14.304;2022-07-03T00:05:21;1.03;;;1.03;;
8361;SDS011;4218;48.326;14.304;2022-07-03T00:07:47;1.17;;;1.17;;
8361;SDS011;4218;48.326;14.304;2022-07-03T00:10:12;1.30;;;1.17;;
8361;SDS011;4218;48.326;14.304;2022-07-03T00:12:38;1.17;;;1.17;;
8361;SDS011;4218;48.326;14.304;2022-07-03T00:15:04;1.50;;;1.40;;
8361;SDS011;4218;48.326;14.304;2022-07-03T00:17:30;0.97;;;0.97;;
8361;SDS011;4218;48.326;14.304;2022-07-03T00:19:55;1.50;;;1.40;;
8361;SDS011;4218;48.326;14.304;2022-07-03T00:22:20;1.10;;;1.10;;
8361;SDS011;4218;48.326;14.304;2022-07-03T00:24:50;1.20;;;1.20;;
8361;SDS011;4218;48.326;14.304;2022-07-03T00:27:18;1.27;;;1.27;;
8361;SDS011;4218;48.326;14.304;2022-07-03T00:29:45;1.50;;;1.40;;
8361;SDS011;4218;48.326;14.304;2022-07-03T00:32:18;1.27;;;1.27;;
8361;SDS011;4218;48.326;14.304;2022-07-03T00:34:52;1.40;;;1.30;;
8361;SDS011;4218;48.326;14.304;2022-07-03T00:37:19;1.43;;;1.33;;
8361;SDS011;4218;48.326;14.304;2022-07-03T00:39:45;1.57;;;1.57;;
8361;SDS011;4218;48.326;14.304;2022-07-03T00:42:13;1.30;;;1.27;;
8361;SDS011;4218;48.326;14.304;2022-07-03T00:44:55;1.40;;;1.30;;
8361;SDS011;4218;48.326;14.304;2022-07-03T00:47:23;1.20;;;1.10;;
8361;SDS011;4218;48.326;14.304;2022-07-03T00:49:51;1.37;;;1.27;;
8361;SDS011;4218;48.326;14.304;2022-07-03T00:52:19;1.10;;;1.10;;
8361;SDS011;4218;48.326;14.304;2022-07-03T00:54:53;1.20;;;1.20;;
8361;SDS011;4218;48.326;14.304;2022-07-03T00:57:20;1.07;;;1.07;;
8361;SDS011;4218;48.326;14.304;2022-07-03T00:59:47;1.20;;;1.17;;
8361;SDS011;4218;48.326;14.304;2022-07-03T01:02:15;1.40;;;1.40;;
8361;SDS011;4218;48.326;14.304;2022-07-03T01:05:24;1.50;;;1.40;;
8361;SDS011;4218;48.326;14.304;2022-07-03T01:08:01;1.50;;;1.50;;
8361;SDS011;4218;48.326;14.304;2022-07-03T01:10:41;1.33;;;1.30;;
8361;SDS011;4218;48.326;14.304;2022-07-03T01:13:18;1.17;;;1.17;;
8361;SDS011;4218;48.326;14.304;2022-07-03T01:16:02;1.33;;;1.33;;
8361;SDS011;4218;48.326;14.304;2022-07-03T01:18:40;1.33;;;1.23;;
8361;SDS011;4218;48.326;14.304;2022-07-03T01:26:55;1.27;;;1.27;;
8361;SDS011;4218;48.326;14.304;2022-07-03T01:32:29;1.30;;;1.30;;
8361;SDS011;4218;48.326;14.304;2022-07-03T01:34:59;1.53;;;1.43;;
8361;SDS011;4218;48.326;14.304;2022-07-03T01:37:26;1.17;;;1.17;;
8361;SDS011;4218;48.326;14.304;2022-07-03T01:39:54;1.70;;;1.60;;
8361;SDS011;4218;48.326;14.304;2022-07-03T01:42:23;1.37;;;1.27;;
8361;SDS011;4218;48.326;14.304;2022-07-03T01:44:49;1.20;;;1.20;;
8361;SDS011;4218;48.326;14.304;2022-07-03T01:47:17;1.03;;;1.03;;
8361;SDS011;4218;48.326;14.304;2022-07-03T01:49:43;1.50;;;1.40;;
8361;SDS011;4218;48.326;14.304;2022-07-03T01:52:10;1.90;;;1.80;;
8361;SDS011;4218;48.326;14.304;2022-07-03T01:54:37;1.40;;;1.40;;
8361;SDS011;4218;48.326;14.304;2022-07-03T01:57:05;1.03;;;1.03;;
8361;SDS011;4218;48.326;14.304;2022-07-03T01:59:31;1.30;;;1.30;;
8361;SDS011;4218;48.326;14.304;2022-07-03T02:04:41;1.53;;;1.33;;
8361;SDS011;4218;48.326;14.304;2022-07-03T02:12:39;1.57;;;1.47;;
8361;SDS011;4218;48.326;14.304;2022-07-03T02:15:12;1.37;;;1.37;;
8361;SDS011;4218;48.326;14.304;2022-07-03T02:17:45;1.30;;;1.30;;
8361;SDS011;4218;48.326;14.304;2022-07-03T02:20:13;1.40;;;1.37;;
8361;SDS011;4218;48.326;14.304;2022-07-03T02:22:41;1.77;;;1.20;;
8361;SDS011;4218;48.326;14.304;2022-07-03T02:25:16;1.50;;;1.40;;
8361;SDS011;4218;48.326;14.304;2022-07-03T02:27:47;1.23;;;1.23;;
8361;SDS011;4218;48.326;14.304;2022-07-03T02:30:43;1.47;;;1.37;;
8361;SDS011;4218;48.326;14.304;2022-07-03T02:33:13;1.20;;;1.20;;
8361;SDS011;4218;48.326;14.304;2022-07-03T02:35:46;1.10;;;1.10;;
8361;SDS011;4218;48.326;14.304;2022-07-03T02:38:17;1.53;;;1.53;;
8361;SDS011;4218;48.326;14.304;2022-07-03T02:43:36;1.57;;;1.47;;
8361;SDS011;4218;48.326;14.304;2022-07-03T02:51:57;1.20;;;1.20;;
8361;SDS011;4218;48.326;14.304;2022-07-03T02:54:24;1.33;;;1.23;;
8361;SDS011;4218;48.326;14.304;2022-07-03T02:57:01;2.47;;;1.50;;
8361;SDS011;4218;48.326;14.304;2022-07-03T03:04:49;1.30;;;1.30;;
8361;SDS011;4218;48.326;14.304;2022-07-03T03:07:25;1.30;;;1.30;;
8361;SDS011;4218;48.326;14.304;2022-07-03T03:09:54;1.77;;;1.67;;
8361;SDS011;4218;48.326;14.304;2022-07-03T03:12:22;1.40;;;1.40;;
8361;SDS011;4218;48.326;14.304;2022-07-03T03:15:00;1.13;;;1.13;;
8361;SDS011;4218;48.326;14.304;2022-07-03T03:17:28;1.33;;;1.30;;
8361;SDS011;4218;48.326;14.304;2022-07-03T03:20:01;1.57;;;1.47;;
8361;SDS011;4218;48.326;14.304;2022-07-03T03:25:24;1.60;;;1.60;;
8361;SDS011;4218;48.326;14.304;2022-07-03T03:27:49;1.40;;;1.40;;
8361;SDS011;4218;48.326;14.304;2022-07-03T03:30:15;1.30;;;1.20;;
8361;SDS011;4218;48.326;14.304;2022-07-03T03:32:41;1.57;;;1.47;;
8361;SDS011;4218;48.326;14.304;2022-07-03T03:35:07;1.70;;;1.60;;
8361;SDS011;4218;48.326;14.304;2022-07-03T03:37:33;1.37;;;1.27;;
8361;SDS011;4218;48.326;14.304;2022-07-03T03:39:58;1.37;;;1.37;;
8361;SDS011;4218;48.326;14.304;2022-07-03T03:42:24;1.60;;;1.60;;
8361;SDS011;4218;48.326;14.304;2022-07-03T03:44:49;1.30;;;1.30;;
8361;SDS011;4218;48.326;14.304;2022-07-03T03:47:14;2.40;;;1.43;;
8361;SDS011;4218;48.326;14.304;2022-07-03T03:49:40;1.80;;;1.70;;
8361;SDS011;4218;48.326;14.304;2022-07-03T03:52:06;1.93;;;1.83;;
8361;SDS011;4218;48.326;14.304;2022-07-03T03:54:31;1.80;;;1.70;;
8361;SDS011;4218;48.326;14.304;2022-07-03T03:56:57;2.83;;;1.50;;
8361;SDS011;4218;48.326;14.304;2022-07-03T03:59:22;1.37;;;1.37;;
8361;SDS011;4218;48.326;14.304;2022-07-03T04:01:47;1.27;;;1.20;;
8361;SDS011;4218;48.326;14.304;2022-07-03T04:04:13;1.57;;;1.47;;
8361;SDS011;4218;48.326;14.304;2022-07-03T04:06:42;1.47;;;1.47;;
8361;SDS011;4218;48.326;14.304;2022-07-03T04:09:09;1.53;;;1.53;;
8361;SDS011;4218;48.326;14.304;2022-07-03T04:11:34;1.60;;;1.50;;
8361;SDS011;4218;48.326;14.304;2022-07-03T04:13:59;1.57;;;1.47;;
8361;SDS011;4218;48.326;14.304;2022-07-03T04:16:25;1.70;;;1.60;;
8361;SDS011;4218;48.326;14.304;2022-07-03T04:18:50;4.13;;;1.57;;
8361;SDS011;4218;48.326;14.304;2022-07-03T04:21:17;2.60;;;1.33;;
8361;SDS011;4218;48.326;14.304;2022-07-03T04:23:42;2.20;;;1.50;;
8361;SDS011;4218;48.326;14.304;2022-07-03T04:26:08;1.50;;;1.40;;
8361;SDS011;4218;48.326;14.304;2022-07-03T04:28:33;1.43;;;1.43;;
8361;SDS011;4218;48.326;14.304;2022-07-03T04:30:59;1.77;;;1.67;;
8361;SDS011;4218;48.326;14.304;2022-07-03T04:33:24;1.80;;;1.70;;
8361;SDS011;4218;48.326;14.304;2022-07-03T04:35:50;1.70;;;1.60;;
8361;SDS011;4218;48.326;14.304;2022-07-03T04:38:15;1.57;;;1.33;;
8361;SDS011;4218;48.326;14.304;2022-07-03T04:40:40;1.73;;;1.67;;
8361;SDS011;4218;48.326;14.304;2022-07-03T04:43:06;1.67;;;1.57;;
8361;SDS011;4218;48.326;14.304;2022-07-03T04:45:31;1.50;;;1.40;;
8361;SDS011;4218;48.326;14.304;2022-07-03T04:47:57;1.47;;;1.37;;
8361;SDS011;4218;48.326;14.304;2022-07-03T04:50:22;1.90;;;1.80;;
8361;SDS011;4218;48.326;14.304;2022-07-03T04:52:47;1.63;;;1.60;;
8361;SDS011;4218;48.326;14.304;2022-07-03T04:55:13;1.40;;;1.40;;
8361;SDS011;4218;48.326;14.304;2022-07-03T04:57:38;3.07;;;1.50;;
8361;SDS011;4218;48.326;14.304;2022-07-03T05:00:04;1.50;;;1.40;;
8361;SDS011;4218;48.326;14.304;2022-07-03T05:02:31;1.53;;;1.43;;
8361;SDS011;4218;48.326;14.304;2022-07-03T05:04:57;1.73;;;1.63;;
8361;SDS011;4218;48.326;14.304;2022-07-03T05:07:22;1.67;;;1.57;;
8361;SDS011;4218;48.326;14.304;2022-07-03T05:09:48;1.73;;;1.63;;
8361;SDS011;4218;48.326;14.304;2022-07-03T05:12:13;1.40;;;1.40;;
8361;SDS011;4218;48.326;14.304;2022-07-03T05:14:38;1.33;;;1.33;;
8361;SDS011;4218;48.326;14.304;2022-07-03T05:17:04;1.97;;;1.80;;
8361;SDS011;4218;48.326;14.304;2022-07-03T05:19:31;1.73;;;1.63;;
8361;SDS011;4218;48.326;14.304;2022-07-03T05:21:56;1.90;;;1.80;;
8361;SDS011;4218;48.326;14.304;2022-07-03T05:24:21;1.53;;;1.43;;
8361;SDS011;4218;48.326;14.304;2022-07-03T05:26:48;1.27;;;1.27;;
8361;SDS011;4218;48.326;14.304;2022-07-03T05:29:14;2.00;;;1.80;;
8361;SDS011;4218;48.326;14.304;2022-07-03T05:31:39;1.83;;;1.73;;
8361;SDS011;4218;48.326;14.304;2022-07-03T05:34:05;1.33;;;1.30;;
8361;SDS011;4218;48.326;14.304;2022-07-03T05:36:30;1.57;;;1.47;;
8361;SDS011;4218;48.326;14.304;2022-07-03T05:38:55;2.00;;;1.90;;
8361;SDS011;4218;48.326;14.304;2022-07-03T05:41:39;1.50;;;1.50;;
8361;SDS011;4218;48.326;14.304;2022-07-03T05:44:05;1.30;;;1.30;;
8361;SDS011;4218;48.326;14.304;2022-07-03T05:46:30;1.47;;;1.40;;
8361;SDS011;4218;48.326;14.304;2022-07-03T05:48:55;1.43;;;1.33;;
8361;SDS011;4218;48.326;14.304;2022-07-03T05:51:21;1.70;;;1.60;;
8361;SDS011;4218;48.326;14.304;2022-07-03T05:53:46;3.27;;;1.33;;
8361;SDS011;4218;48.326;14.304;2022-07-03T05:56:11;1.67;;;1.57;;
8361;SDS011;4218;48.326;14.304;2022-07-03T05:58:37;1.67;;;1.57;;
8361;SDS011;4218;48.326;14.304;2022-07-03T06:01:02;2.97;;;1.60;;
8361;SDS011;4218;48.326;14.304;2022-07-03T06:03:28;2.30;;;1.77;;
8361;SDS011;4218;48.326;14.304;2022-07-03T06:05:53;3.50;;;2.50;;
8361;SDS011;4218;48.326;14.304;2022-07-03T06:08:18;6.10;;;4.13;;
8361;SDS011;4218;48.326;14.304;2022-07-03T06:10:44;4.53;;;4.13;;
8361;SDS011;4218;48.326;14.304;2022-07-03T06:13:09;5.10;;;4.60;;
8361;SDS011;4218;48.326;14.304;2022-07-03T06:15:34;4.83;;;4.43;;
8361;SDS011;4218;48.326;14.304;2022-07-03T06:18:00;4.80;;;4.37;;
8361;SDS011;4218;48.326;14.304;2022-07-03T06:20:25;4.97;;;4.10;;
8361;SDS011;4218;48.326;14.304;2022-07-03T06:22:51;7.27;;;5.03;;
8361;SDS011;4218;48.326;14.304;2022-07-03T06:25:16;4.83;;;4.33;;
8361;SDS011;4218;48.326;14.304;2022-07-03T06:27:41;7.57;;;6.33;;
8361;SDS011;4218;48.326;14.304;2022-07-03T06:30:07;6.33;;;5.67;;
8361;SDS011;4218;48.326;14.304;2022-07-03T06:32:33;9.03;;;7.30;;
8361;SDS011;4218;48.326;14.304;2022-07-03T06:34:59;11.13;;;8.30;;
8361;SDS011;4218;48.326;14.304;2022-07-03T06:37:24;8.83;;;7.77;;
8361;SDS011;4218;48.326;14.304;2022-07-03T06:39:50;8.43;;;6.23;;
8361;SDS011;4218;48.326;14.304;2022-07-03T06:42:15;11.43;;;6.73;;
8361;SDS011;4218;48.326;14.304;2022-07-03T06:44:40;6.07;;;5.47;;
8361;SDS011;4218;48.326;14.304;2022-07-03T06:47:06;6.73;;;6.00;;
8361;SDS011;4218;48.326;14.304;2022-07-03T06:49:32;10.50;;;6.00;;
8361;SDS011;4218;48.326;14.304;2022-07-03T06:51:58;6.07;;;4.60;;
8361;SDS011;4218;48.326;14.304;2022-07-03T06:54:24;8.57;;;4.90;;
8361;SDS011;4218;48.326;14.304;2022-07-03T06:56:49;10.13;;;4.57;;
8361;SDS011;4218;48.326;14.304;2022-07-03T06:59:15;4.67;;;4.00;;
8361;SDS011;4218;48.326;14.304;2022-07-03T07:01:40;3.60;;;3.30;;
8361;SDS011;4218;48.326;14.304;2022-07-03T07:04:07;3.30;;;2.93;;
8361;SDS011;4218;48.326;14.304;2022-07-03T07:06:33;3.53;;;2.97;;
8361;SDS011;4218;48.326;14.304;2022-07-03T07:08:58;5.67;;;3.43;;
8361;SDS011;4218;48.326;14.304;2022-07-03T07:11:23;4.00;;;3.60;;
8361;SDS011;4218;48.326;14.304;2022-07-03T07:13:49;3.43;;;3.13;;
8361;SDS011;4218;48.326;14.304;2022-07-03T07:16:14;3.80;;;3.43;;
8361;SDS011;4218;48.326;14.304;2022-07-03T07:18:40;4.17;;;2.90;;
8361;SDS011;4218;48.326;14.304;2022-07-03T07:21:07;4.90;;;3.70;;
8361;SDS011;4218;48.326;14.304;2022-07-03T07:23:33;4.73;;;4.13;;
8361;SDS011;4218;48.326;14.304;2022-07-03T07:25:58;4.13;;;3.43;;
8361;SDS011;4218;48.326;14.304;2022-07-03T07:28:23;4.87;;;4.40;;
8361;SDS011;4218;48.326;14.304;2022-07-03T07:30:49;5.07;;;3.67;;
8361;SDS011;4218;48.326;14.304;2022-07-03T07:33:14;3.37;;;3.07;;
8361;SDS011;4218;48.326;14.304;2022-07-03T07:35:40;5.47;;;3.37;;
8361;SDS011;4218;48.326;14.304;2022-07-03T07:38:05;3.03;;;2.83;;
8361;SDS011;4218;48.326;14.304;2022-07-03T07:40:30;3.30;;;3.00;;
8361;SDS011;4218;48.326;14.304;2022-07-03T07:42:56;2.43;;;2.23;;
8361;SDS011;4218;48.326;14.304;2022-07-03T07:45:21;2.97;;;2.77;;
8361;SDS011;4218;48.326;14.304;2022-07-03T07:47:47;2.70;;;2.50;;
8361;SDS011;4218;48.326;14.304;2022-07-03T07:50:12;2.83;;;2.63;;
8361;SDS011;4218;48.326;14.304;2022-07-03T07:52:39;2.70;;;2.47;;
8361;SDS011;4218;48.326;14.304;2022-07-03T07:55:04;2.07;;;1.97;;
8361;SDS011;4218;48.326;14.304;2022-07-03T07:57:37;1.80;;;1.70;;
8361;SDS011;4218;48.326;14.304;2022-07-03T08:00:04;1.90;;;1.80;;
8361;SDS011;4218;48.326;14.304;2022-07-03T08:02:34;2.20;;;2.10;;
8361;SDS011;4218;48.326;14.304;2022-07-03T08:05:18;1.80;;;1.70;;
8361;SDS011;4218;48.326;14.304;2022-07-03T08:08:03;2.87;;;2.67;;
8361;SDS011;4218;48.326;14.304;2022-07-03T08:10:35;2.50;;;2.27;;
8361;SDS011;4218;48.326;14.304;2022-07-03T08:13:01;2.93;;;1.90;;
8361;SDS011;4218;48.326;14.304;2022-07-03T08:15:26;2.40;;;1.80;;
8361;SDS011;4218;48.326;14.304;2022-07-03T08:17:52;1.67;;;1.57;;
8361;SDS011;4218;48.326;14.304;2022-07-03T08:20:17;1.53;;;1.53;;
8361;SDS011;4218;48.326;14.304;2022-07-03T08:22:42;1.50;;;1.50;;
8361;SDS011;4218;48.326;14.304;2022-07-03T08:25:08;1.93;;;1.83;;
8361;SDS011;4218;48.326;14.304;2022-07-03T08:27:33;2.20;;;2.00;;
8361;SDS011;4218;48.326;14.304;2022-07-03T08:29:58;1.30;;;1.20;;
8361;SDS011;4218;48.326;14.304;2022-07-03T08:32:24;1.57;;;1.57;;
8361;SDS011;4218;48.326;14.304;2022-07-03T08:34:49;1.73;;;1.70;;
8361;SDS011;4218;48.326;14.304;2022-07-03T08:37:15;1.40;;;1.33;;
8361;SDS011;4218;48.326;14.304;2022-07-03T08:39:40;1.20;;;1.20;;
8361;SDS011;4218;48.326;14.304;2022-07-03T08:42:05;1.87;;;1.77;;
8361;SDS011;4218;48.326;14.304;2022-07-03T08:44:32;1.30;;;1.30;;
8361;SDS011;4218;48.326;14.304;2022-07-03T08:47:00;1.70;;;1.60;;
8361;SDS011;4218;48.326;14.304;2022-07-03T08:49:28;2.00;;;1.80;;
8361;SDS011;4218;48.326;14.304;2022-07-03T08:51:54;1.60;;;1.50;;
8361;SDS011;4218;48.326;14.304;2022-07-03T08:54:20;2.23;;;1.70;;
8361;SDS011;4218;48.326;14.304;2022-07-03T08:56:46;2.27;;;1.60;;
8361;SDS011;4218;48.326;14.304;2022-07-03T08:59:12;1.93;;;1.83;;
8361;SDS011;4218;48.326;14.304;2022-07-03T09:01:38;2.20;;;2.00;;
8361;SDS011;4218;48.326;14.304;2022-07-03T09:04:08;1.60;;;1.50;;
8361;SDS011;4218;48.326;14.304;2022-07-03T09:06:36;1.90;;;1.80;;
8361;SDS011;4218;48.326;14.304;2022-07-03T09:09:03;2.03;;;1.67;;
8361;SDS011;4218;48.326;14.304;2022-07-03T09:11:28;1.73;;;1.63;;
8361;SDS011;4218;48.326;14.304;2022-07-03T09:13:54;1.70;;;1.60;;
8361;SDS011;4218;48.326;14.304;2022-07-03T09:16:19;1.40;;;1.40;;
8361;SDS011;4218;48.326;14.304;2022-07-03T09:18:44;2.37;;;2.17;;
8361;SDS011;4218;48.326;14.304;2022-07-03T09:21:10;1.93;;;1.70;;
8361;SDS011;4218;48.326;14.304;2022-07-03T09:23:36;1.70;;;1.60;;
8361;SDS011;4218;48.326;14.304;2022-07-03T09:26:05;1.77;;;1.67;;
8361;SDS011;4218;48.326;14.304;2022-07-03T09:31:09;1.60;;;1.50;;
8361;SDS011;4218;48.326;14.304;2022-07-03T09:33:47;2.40;;;2.20;;
8361;SDS011;4218;48.326;14.304;2022-07-03T09:36:14;1.97;;;1.87;;
8361;SDS011;4218;48.326;14.304;2022-07-03T09:38:43;1.97;;;1.87;;
8361;SDS011;4218;48.326;14.304;2022-07-03T09:41:12;2.57;;;2.03;;
8361;SDS011;4218;48.326;14.304;2022-07-03T09:43:40;3.03;;;1.70;;
8361;SDS011;4218;48.326;14.304;2022-07-03T09:46:07;2.20;;;2.07;;
8361;SDS011;4218;48.326;14.304;2022-07-03T09:48:36;1.77;;;1.67;;
8361;SDS011;4218;48.326;14.304;2022-07-03T09:53:49;2.20;;;2.10;;
8361;SDS011;4218;48.326;14.304;2022-07-03T09:56:23;2.27;;;2.10;;
8361;SDS011;4218;48.326;14.304;2022-07-03T10:01:33;2.20;;;1.87;;
8361;SDS011;4218;48.326;14.304;2022-07-03T10:04:16;1.87;;;1.70;;
8361;SDS011;4218;48.326;14.304;2022-07-03T10:09:24;2.43;;;2.20;;
8361;SDS011;4218;48.326;14.304;2022-07-03T10:11:54;2.13;;;2.03;;
8361;SDS011;4218;48.326;14.304;2022-07-03T10:14:22;2.17;;;2.07;;
8361;SDS011;4218;48.326;14.304;2022-07-03T10:16:49;1.10;;;1.10;;
8361;SDS011;4218;48.326;14.304;2022-07-03T10:19:18;1.10;;;1.10;;
8361;SDS011;4218;48.326;14.304;2022-07-03T10:21:55;1.03;;;1.03;;
8361;SDS011;4218;48.326;14.304;2022-07-03T10:24:23;1.00;;;1.00;;
8361;SDS011;4218;48.326;14.304;2022-07-03T10:26:50;1.23;;;1.17;;
8361;SDS011;4218;48.326;14.304;2022-07-03T10:29:17;1.33;;;1.23;;
8361;SDS011;4218;48.326;14.304;2022-07-03T10:31:49;1.77;;;1.13;;
8361;SDS011;4218;48.326;14.304;2022-07-03T10:34:16;1.30;;;1.30;;
8361;SDS011;4218;48.326;14.304;2022-07-03T10:36:43;1.37;;;1.27;;
8361;SDS011;4218;48.326;14.304;2022-07-03T10:39:14;1.10;;;1.10;;
8361;SDS011;4218;48.326;14.304;2022-07-03T10:41:46;1.20;;;1.20;;
8361;SDS011;4218;48.326;14.304;2022-07-03T10:44:34;0.90;;;0.90;;
8361;SDS011;4218;48.326;14.304;2022-07-03T10:47:56;1.20;;;1.20;;
8361;SDS011;4218;48.326;14.304;2022-07-03T10:50:07;1.10;;;1.10;;
8361;SDS011;4218;48.326;14.304;2022-07-03T10:52:44;1.33;;;1.23;;
8361;SDS011;4218;48.326;14.304;2022-07-03T10:55:10;1.20;;;1.20;;
8361;SDS011;4218;48.326;14.304;2022-07-03T10:57:37;1.13;;;1.13;;
8361;SDS011;4218;48.326;14.304;2022-07-03T11:00:04;1.30;;;1.30;;
8361;SDS011;4218;48.326;14.304;2022-07-03T11:02:46;1.20;;;1.20;;
8361;SDS011;4218;48.326;14.304;2022-07-03T11:18:32;1.10;;;1.10;;
8361;SDS011;4218;48.326;14.304;2022-07-03T11:21:08;1.13;;;1.13;;
8361;SDS011;4218;48.326;14.304;2022-07-03T11:23:40;1.48;;;1.23;;
8361;SDS011;4218;48.326;14.304;2022-07-03T11:26:22;1.15;;;1.15;;
8361;SDS011;4218;48.326;14.304;2022-07-03T11:28:52;1.00;;;1.00;;
8361;SDS011;4218;48.326;14.304;2022-07-03T11:31:19;1.20;;;1.20;;
8361;SDS011;4218;48.326;14.304;2022-07-03T11:41:20;2.08;;;1.10;;
8361;SDS011;4218;48.326;14.304;2022-07-03T11:43:49;1.13;;;1.13;;
8361;SDS011;4218;48.326;14.304;2022-07-03T11:46:19;0.80;;;0.80;;
8361;SDS011;4218;48.326;14.304;2022-07-03T11:49:08;0.80;;;0.80;;
8361;SDS011;4218;48.326;14.304;2022-07-03T11:52:03;1.08;;;1.08;;
8361;SDS011;4218;48.326;14.304;2022-07-03T11:54:31;1.00;;;1.00;;
8361;SDS011;4218;48.326;14.304;2022-07-03T11:57:15;1.00;;;1.00;;
8361;SDS011;4218;48.326;14.304;2022-07-03T11:59:40;2.67;;;1.30;;
8361;SDS011;4218;48.326;14.304;2022-07-03T12:02:06;1.00;;;1.00;;
8361;SDS011;4218;48.326;14.304;2022-07-03T12:04:32;1.00;;;1.00;;
8361;SDS011;4218;48.326;14.304;2022-07-03T12:06:58;1.23;;;1.23;;
8361;SDS011;4218;48.326;14.304;2022-07-03T12:09:28;1.08;;;1.08;;
8361;SDS011;4218;48.326;14.304;2022-07-03T12:11:59;1.00;;;1.00;;
8361;SDS011;4218;48.326;14.304;2022-07-03T12:16:58;1.00;;;1.00;;
8361;SDS011;4218;48.326;14.304;2022-07-03T12:19:23;0.88;;;0.88;;
8361;SDS011;4218;48.326;14.304;2022-07-03T12:21:49;0.88;;;0.88;;
8361;SDS011;4218;48.326;14.304;2022-07-03T12:24:14;0.93;;;0.93;;
8361;SDS011;4218;48.326;14.304;2022-07-03T12:26:39;0.93;;;0.93;;
8361;SDS011;4218;48.326;14.304;2022-07-03T12:29:06;0.93;;;0.93;;
8361;SDS011;4218;48.326;14.304;2022-07-03T12:31:34;0.88;;;0.88;;
8361;SDS011;4218;48.326;14.304;2022-07-03T12:34:00;1.08;;;1.08;;
8361;SDS011;4218;48.326;14.304;2022-07-03T12:36:27;0.60;;;0.60;;
8361;SDS011;4218;48.326;14.304;2022-07-03T12:38:54;1.00;;;1.00;;
8361;SDS011;4218;48.326;14.304;2022-07-03T12:41:20;0.90;;;0.90;;
8361;SDS011;4218;48.326;14.304;2022-07-03T12:43:47;0.77;;;0.77;;
8361;SDS011;4218;48.326;14.304;2022-07-03T12:49:12;0.90;;;0.90;;
8361;SDS011;4218;48.326;14.304;2022-07-03T12:51:53;0.90;;;0.90;;
8361;SDS011;4218;48.326;14.304;2022-07-03T12:54:22;0.95;;;0.95;;
8361;SDS011;4218;48.326;14.304;2022-07-03T12:57:09;0.82;;;0.82;;
8361;SDS011;4218;48.326;14.304;2022-07-03T13:00:07;0.90;;;0.90;;
8361;SDS011;4218;48.326;14.304;2022-07-03T13:02:40;0.90;;;0.90;;
8361;SDS011;4218;48.326;14.304;2022-07-03T13:05:19;0.82;;;0.82;;
8361;SDS011;4218;48.326;14.304;2022-07-03T13:07:48;0.80;;;0.80;;
8361;SDS011;4218;48.326;14.304;2022-07-03T13:10:18;0.80;;;0.80;;
8361;SDS011;4218;48.326;14.304;2022-07-03T13:12:54;0.93;;;0.93;;
8361;SDS011;4218;48.326;14.304;2022-07-03T13:15:27;0.70;;;0.70;;
8361;SDS011;4218;48.326;14.304;2022-07-03T13:20:28;0.90;;;0.90;;
8361;SDS011;4218;48.326;14.304;2022-07-03T13:22:56;0.80;;;0.80;;
8361;SDS011;4218;48.326;14.304;2022-07-03T13:25:26;0.88;;;0.88;;
8361;SDS011;4218;48.326;14.304;2022-07-03T13:27:52;2.40;;;1.00;;
8361;SDS011;4218;48.326;14.304;2022-07-03T13:30:27;0.90;;;0.90;;
8361;SDS011;4218;48.326;14.304;2022-07-03T13:32:53;1.23;;;1.05;;
8361;SDS011;4218;48.326;14.304;2022-07-03T13:35:18;0.80;;;0.80;;
8361;SDS011;4218;48.326;14.304;2022-07-03T13:37:43;0.60;;;0.60;;
8361;SDS011;4218;48.326;14.304;2022-07-03T13:40:09;0.70;;;0.70;;
8361;SDS011;4218;48.326;14.304;2022-07-03T13:42:34;0.80;;;0.80;;
8361;SDS011;4218;48.326;14.304;2022-07-03T13:45:00;0.93;;;0.93;;
8361;SDS011;4218;48.326;14.304;2022-07-03T13:47:25;2.15;;;0.98;;
8361;SDS011;4218;48.326;14.304;2022-07-03T13:49:50;1.00;;;1.00;;
8361;SDS011;4218;48.326;14.304;2022-07-03T13:52:17;0.60;;;0.60;;
8361;SDS011;4218;48.326;14.304;2022-07-03T13:54:43;0.73;;;0.73;;
8361;SDS011;4218;48.326;14.304;2022-07-03T13:57:08;0.90;;;0.90;;
8361;SDS011;4218;48.326;14.304;2022-07-03T13:59:33;1.00;;;1.00;;
8361;SDS011;4218;48.326;14.304;2022-07-03T14:01:59;0.85;;;0.85;;
8361;SDS011;4218;48.326;14.304;2022-07-03T14:04:25;0.70;;;0.70;;
8361;SDS011;4218;48.326;14.304;2022-07-03T14:06:50;0.98;;;0.98;;
8361;SDS011;4218;48.326;14.304;2022-07-03T14:09:16;0.90;;;0.90;;
8361;SDS011;4218;48.326;14.304;2022-07-03T14:11:41;0.82;;;0.82;;
8361;SDS011;4218;48.326;14.304;2022-07-03T14:14:07;0.80;;;0.80;;
8361;SDS011;4218;48.326;14.304;2022-07-03T14:16:33;0.60;;;0.60;;
8361;SDS011;4218;48.326;14.304;2022-07-03T14:18:58;2.47;;;1.10;;
8361;SDS011;4218;48.326;14.304;2022-07-03T14:21:24;0.88;;;0.88;;
8361;SDS011;4218;48.326;14.304;2022-07-03T14:23:49;0.80;;;0.80;;
8361;SDS011;4218;48.326;14.304;2022-07-03T14:26:15;0.93;;;0.93;;
8361;SDS011;4218;48.326;14.304;2022-07-03T14:28:40;1.05;;;1.05;;
8361;SDS011;4218;48.326;14.304;2022-07-03T14:31:24;0.80;;;0.80;;
8361;SDS011;4218;48.326;14.304;2022-07-03T14:33:50;0.80;;;0.80;;
8361;SDS011;4218;48.326;14.304;2022-07-03T14:36:18;0.90;;;0.90;;
8361;SDS011;4218;48.326;14.304;2022-07-03T14:38:45;0.70;;;0.70;;
8361;SDS011;4218;48.326;14.304;2022-07-03T14:41:10;0.70;;;0.70;;
8361;SDS011;4218;48.326;14.304;2022-07-03T14:43:36;1.10;;;1.10;;
8361;SDS011;4218;48.326;14.304;2022-07-03T14:46:02;1.00;;;1.00;;
8361;SDS011;4218;48.326;14.304;2022-07-03T14:48:27;1.00;;;1.00;;
8361;SDS011;4218;48.326;14.304;2022-07-03T14:50:53;1.00;;;0.88;;
8361;SDS011;4218;48.326;14.304;2022-07-03T14:53:19;1.25;;;0.95;;
8361;SDS011;4218;48.326;14.304;2022-07-03T14:55:45;0.73;;;0.73;;
8361;SDS011;4218;48.326;14.304;2022-07-03T15:01:02;0.85;;;0.70;;
8361;SDS011;4218;48.326;14.304;2022-07-03T15:03:32;0.80;;;0.80;;
8361;SDS011;4218;48.326;14.304;2022-07-03T15:06:01;0.70;;;0.70;;
8361;SDS011;4218;48.326;14.304;2022-07-03T15:11:06;0.73;;;0.73;;
8361;SDS011;4218;48.326;14.304;2022-07-03T15:13:33;0.70;;;0.70;;
8361;SDS011;4218;48.326;14.304;2022-07-03T15:15:59;1.08;;;0.85;;
8361;SDS011;4218;48.326;14.304;2022-07-03T15:18:26;0.73;;;0.73;;
8361;SDS011;4218;48.326;14.304;2022-07-03T15:20:53;1.00;;;1.00;;
8361;SDS011;4218;48.326;14.304;2022-07-03T15:23:19;1.15;;;0.90;;
8361;SDS011;4218;48.326;14.304;2022-07-03T15:25:46;1.02;;;1.00;;
8361;SDS011;4218;48.326;14.304;2022-07-03T15:28:12;0.85;;;0.85;;
8361;SDS011;4218;48.326;14.304;2022-07-03T15:30:45;2.15;;;0.80;;
8361;SDS011;4218;48.326;14.304;2022-07-03T15:33:15;0.90;;;0.90;;
8361;SDS011;4218;48.326;14.304;2022-07-03T15:35:51;0.70;;;0.70;;
8361;SDS011;4218;48.326;14.304;2022-07-03T15:38:24;0.70;;;0.70;;
8361;SDS011;4218;48.326;14.304;2022-07-03T15:40:58;3.40;;;1.02;;
8361;SDS011;4218;48.326;14.304;2022-07-03T15:52:16;0.73;;;0.73;;
8361;SDS011;4218;48.326;14.304;2022-07-03T15:54:22;0.93;;;0.93;;
8361;SDS011;4218;48.326;14.304;2022-07-03T15:56:55;0.80;;;0.80;;
8361;SDS011;4218;48.326;14.304;2022-07-03T15:59:26;0.75;;;0.75;;
8361;SDS011;4218;48.326;14.304;2022-07-03T16:01:55;0.88;;;0.88;;
8361;SDS011;4218;48.326;14.304;2022-07-03T16:07:20;0.77;;;0.77;;
8361;SDS011;4218;48.326;14.304;2022-07-03T16:09:47;0.90;;;0.90;;
8361;SDS011;4218;48.326;14.304;2022-07-03T16:12:14;0.88;;;0.80;;
8361;SDS011;4218;48.326;14.304;2022-07-03T16:14:49;0.82;;;0.82;;
8361;SDS011;4218;48.326;14.304;2022-07-03T16:17:19;2.28;;;0.80;;
8361;SDS011;4218;48.326;14.304;2022-07-03T16:19:46;0.70;;;0.70;;
8361;SDS011;4218;48.326;14.304;2022-07-03T16:22:13;0.90;;;0.90;;
8361;SDS011;4218;48.326;14.304;2022-07-03T16:24:43;0.80;;;0.80;;
8361;SDS011;4218;48.326;14.304;2022-07-03T16:27:11;0.82;;;0.82;;
8361;SDS011;4218;48.326;14.304;2022-07-03T16:29:38;0.73;;;0.73;;
8361;SDS011;4218;48.326;14.304;2022-07-03T16:32:04;0.93;;;0.93;;
8361;SDS011;4218;48.326;14.304;2022-07-03T16:37:19;0.90;;;0.90;;
8361;SDS011;4218;48.326;14.304;2022-07-03T16:39:59;0.82;;;0.82;;